sensor_id;sensor_type;location;lat;lon;timestamp;temperature;humidity
4699;DHT22;33708;49.466;11.176;2024-01-27T00:01:15;3.90;99.90
4699;DHT22;33708;49.466;11.176;2024-01-27T00:03:40;3.90;99.90
4699;DHT22;33708;49.466;11.176;2024-01-27T00:06:06;3.80;99.90
4699;DHT22;33708;49.466;11.176;2024-01-27T00:08:32;3.70;99.90
4699;DHT22;33708;49.466;11.176;2024-01-27T00:10:57;3.70;99.90
4699;DHT22;33708;49.466;11.176;2024-01-27T00:13:23;3.70;99.90
4699;DHT22;33708;49.466;11.176;2024-01-27T00:15:48;3.70;99.90
4699;DHT22;33708;49.466;11.176;2024-01-27T00:18:15;3.70;99.90
4699;DHT22;33708;49.466;11.176;2024-01-27T00:20:41;3.60;99.90
4699;DHT22;33708;49.466;11.176;2024-01-27T00:23:07;3.50;99.90
4699;DHT22;33708;49.466;11.176;2024-01-27T00:25:33;3.70;99.90
4699;DHT22;33708;49.466;11.176;2024-01-27T00:27:59;3.40;99.90
4699;DHT22;33708;49.466;11.176;2024-01-27T00:30:24;3.40;99.90
4699;DHT22;33708;49.466;11.176;2024-01-27T00:32:51;3.30;99.90
4699;DHT22;33708;49.466;11.176;2024-01-27T00:35:16;3.30;99.90
4699;DHT22;33708;49.466;11.176;2024-01-27T00:37:42;3.30;99.90
4699;DHT22;33708;49.466;11.176;2024-01-27T00:40:11;3.20;99.90
4699;DHT22;33708;49.466;11.176;2024-01-27T00:42:37;3.20;99.90
4699;DHT22;33708;49.466;11.176;2024-01-27T00:45:04;3.20;99.90
4699;DHT22;33708;49.466;11.176;2024-01-27T00:47:30;3.10;99.90
4699;DHT22;33708;49.466;11.176;2024-01-27T00:49:55;3.10;99.90
4699;DHT22;33708;49.466;11.176;2024-01-27T00:52:22;3.00;99.90
4699;DHT22;33708;49.466;11.176;2024-01-27T00:54:47;3.70;99.90
4699;DHT22;33708;49.466;11.176;2024-01-27T00:57:13;2.90;99.90
4699;DHT22;33708;49.466;11.176;2024-01-27T00:59:38;2.90;99.90
4699;DHT22;33708;49.466;11.176;2024-01-27T01:02:04;2.90;99.90
4699;DHT22;33708;49.466;11.176;2024-01-27T01:04:30;2.80;99.90
4699;DHT22;33708;49.466;11.176;2024-01-27T01:06:56;2.80;99.90
4699;DHT22;33708;49.466;11.176;2024-01-27T01:09:21;2.80;99.90
4699;DHT22;33708;49.466;11.176;2024-01-27T01:11:47;2.60;99.90
4699;DHT22;33708;49.466;11.176;2024-01-27T01:14:13;2.60;99.90
4699;DHT22;33708;49.466;11.176;2024-01-27T01:16:39;2.50;99.90
4699;DHT22;33708;49.466;11.176;2024-01-27T01:19:05;2.50;99.90
4699;DHT22;33708;49.466;11.176;2024-01-27T01:21:31;2.50;99.90
4699;DHT22;33708;49.466;11.176;2024-01-27T01:23:57;2.50;99.90
4699;DHT22;33708;49.466;11.176;2024-01-27T01:26:23;2.40;99.90
4699;DHT22;33708;49.466;11.176;2024-01-27T01:28:50;2.40;99.90
4699;DHT22;33708;49.466;11.176;2024-01-27T01:31:15;2.30;99.90
4699;DHT22;33708;49.466;11.176;2024-01-27T01:33:42;2.40;99.90
4699;DHT22;33708;49.466;11.176;2024-01-27T01:36:08;2.50;99.90
4699;DHT22;33708;49.466;11.176;2024-01-27T01:38:33;2.30;99.90
4699;DHT22;33708;49.466;11.176;2024-01-27T01:40:59;2.30;99.90
4699;DHT22;33708;49.466;11.176;2024-01-27T01:43:25;2.30;99.90
4699;DHT22;33708;49.466;11.176;2024-01-27T01:45:51;2.30;99.90
4699;DHT22;33708;49.466;11.176;2024-01-27T01:48:19;2.20;99.90
4699;DHT22;33708;49.466;11.176;2024-01-27T01:50:46;2.20;99.90
4699;DHT22;33708;49.466;11.176;2024-01-27T01:53:12;2.20;99.90
4699;DHT22;33708;49.466;11.176;2024-01-27T01:55:39;2.20;99.90
4699;DHT22;33708;49.466;11.176;2024-01-27T01:58:05;2.10;99.90
4699;DHT22;33708;49.466;11.176;2024-01-27T02:00:31;2.10;99.90
4699;DHT22;33708;49.466;11.176;2024-01-27T02:02:56;2.10;99.90
4699;DHT22;33708;49.466;11.176;2024-01-27T02:05:22;2.00;99.90
4699;DHT22;33708;49.466;11.176;2024-01-27T02:07:47;2.10;99.90
4699;DHT22;33708;49.466;11.176;2024-01-27T02:10:16;2.10;99.90
4699;DHT22;33708;49.466;11.176;2024-01-27T02:12:42;2.00;99.90
4699;DHT22;33708;49.466;11.176;2024-01-27T02:15:12;2.10;99.90
4699;DHT22;33708;49.466;11.176;2024-01-27T02:17:38;2.10;99.90
4699;DHT22;33708;49.466;11.176;2024-01-27T02:20:05;2.10;99.90
4699;DHT22;33708;49.466;11.176;2024-01-27T02:22:35;2.10;99.90
4699;DHT22;33708;49.466;11.176;2024-01-27T02:25:02;2.00;99.90
4699;DHT22;33708;49.466;11.176;2024-01-27T02:27:28;2.10;99.90
4699;DHT22;33708;49.466;11.176;2024-01-27T02:29:53;2.00;99.90
4699;DHT22;33708;49.466;11.176;2024-01-27T02:32:19;2.00;99.90
4699;DHT22;33708;49.466;11.176;2024-01-27T02:34:45;1.90;99.90
4699;DHT22;33708;49.466;11.176;2024-01-27T02:37:10;1.90;99.90
4699;DHT22;33708;49.466;11.176;2024-01-27T02:39:36;2.00;99.90
4699;DHT22;33708;49.466;11.176;2024-01-27T02:42:02;2.00;99.90
4699;DHT22;33708;49.466;11.176;2024-01-27T02:44:28;2.00;99.90
4699;DHT22;33708;49.466;11.176;2024-01-27T02:46:53;1.90;99.90
4699;DHT22;33708;49.466;11.176;2024-01-27T02:49:19;1.90;99.90
4699;DHT22;33708;49.466;11.176;2024-01-27T02:51:44;2.00;99.90
4699;DHT22;33708;49.466;11.176;2024-01-27T02:54:10;1.90;99.90
4699;DHT22;33708;49.466;11.176;2024-01-27T02:56:35;1.90;99.90
4699;DHT22;33708;49.466;11.176;2024-01-27T02:59:02;1.90;99.90
4699;DHT22;33708;49.466;11.176;2024-01-27T03:01:27;1.80;99.90
4699;DHT22;33708;49.466;11.176;2024-01-27T03:03:53;1.80;99.90
4699;DHT22;33708;49.466;11.176;2024-01-27T03:06:19;1.80;99.90
4699;DHT22;33708;49.466;11.176;2024-01-27T03:08:44;1.80;99.90
4699;DHT22;33708;49.466;11.176;2024-01-27T03:11:10;1.80;99.90
4699;DHT22;33708;49.466;11.176;2024-01-27T03:13:36;1.80;99.90
4699;DHT22;33708;49.466;11.176;2024-01-27T03:16:02;1.80;99.90
4699;DHT22;33708;49.466;11.176;2024-01-27T03:18:27;1.70;99.90
4699;DHT22;33708;49.466;11.176;2024-01-27T03:20:53;1.70;99.90
4699;DHT22;33708;49.466;11.176;2024-01-27T03:23:18;1.70;99.90
4699;DHT22;33708;49.466;11.176;2024-01-27T03:25:45;1.70;99.90
4699;DHT22;33708;49.466;11.176;2024-01-27T03:28:10;1.70;99.90
4699;DHT22;33708;49.466;11.176;2024-01-27T03:30:36;1.60;99.90
4699;DHT22;33708;49.466;11.176;2024-01-27T03:33:02;1.60;99.90
4699;DHT22;33708;49.466;11.176;2024-01-27T03:35:27;1.50;99.90
4699;DHT22;33708;49.466;11.176;2024-01-27T03:37:53;1.50;99.90
4699;DHT22;33708;49.466;11.176;2024-01-27T03:40:18;1.50;99.90
4699;DHT22;33708;49.466;11.176;2024-01-27T03:42:44;1.40;99.90
4699;DHT22;33708;49.466;11.176;2024-01-27T03:45:09;1.40;99.90
4699;DHT22;33708;49.466;11.176;2024-01-27T03:47:35;1.40;99.90
4699;DHT22;33708;49.466;11.176;2024-01-27T03:50:00;1.40;99.90
4699;DHT22;33708;49.466;11.176;2024-01-27T03:52:26;1.30;99.90
4699;DHT22;33708;49.466;11.176;2024-01-27T03:54:52;1.30;99.90
4699;DHT22;33708;49.466;11.176;2024-01-27T03:57:17;1.30;99.90
4699;DHT22;33708;49.466;11.176;2024-01-27T03:59:43;1.30;99.90
4699;DHT22;33708;49.466;11.176;2024-01-27T04:02:08;1.20;99.90
4699;DHT22;33708;49.466;11.176;2024-01-27T04:04:34;1.30;99.90
4699;DHT22;33708;49.466;11.176;2024-01-27T04:06:59;1.20;99.90
4699;DHT22;33708;49.466;11.176;2024-01-27T04:09:27;1.20;99.90
4699;DHT22;33708;49.466;11.176;2024-01-27T04:11:52;1.00;99.90
4699;DHT22;33708;49.466;11.176;2024-01-27T04:14:18;0.90;99.90
4699;DHT22;33708;49.466;11.176;2024-01-27T04:16:44;0.80;99.90
4699;DHT22;33708;49.466;11.176;2024-01-27T04:19:09;0.70;99.90
4699;DHT22;33708;49.466;11.176;2024-01-27T04:21:35;0.70;99.90
4699;DHT22;33708;49.466;11.176;2024-01-27T04:24:00;0.70;99.90
4699;DHT22;33708;49.466;11.176;2024-01-27T04:26:26;0.60;99.90
4699;DHT22;33708;49.466;11.176;2024-01-27T04:28:51;0.50;99.90
4699;DHT22;33708;49.466;11.176;2024-01-27T04:31:17;0.40;99.90
4699;DHT22;33708;49.466;11.176;2024-01-27T04:33:43;0.40;99.90
4699;DHT22;33708;49.466;11.176;2024-01-27T04:36:09;0.50;99.90
4699;DHT22;33708;49.466;11.176;2024-01-27T04:38:35;0.50;99.90
4699;DHT22;33708;49.466;11.176;2024-01-27T04:41:01;0.50;99.90
4699;DHT22;33708;49.466;11.176;2024-01-27T04:43:27;0.40;99.90
4699;DHT22;33708;49.466;11.176;2024-01-27T04:45:54;0.30;99.90
4699;DHT22;33708;49.466;11.176;2024-01-27T04:48:20;0.40;99.90
4699;DHT22;33708;49.466;11.176;2024-01-27T04:50:45;0.30;99.90
4699;DHT22;33708;49.466;11.176;2024-01-27T04:53:12;0.30;99.90
4699;DHT22;33708;49.466;11.176;2024-01-27T04:55:37;0.30;99.90
4699;DHT22;33708;49.466;11.176;2024-01-27T04:58:04;0.30;99.90
4699;DHT22;33708;49.466;11.176;2024-01-27T05:00:29;0.30;99.90
4699;DHT22;33708;49.466;11.176;2024-01-27T05:02:55;0.20;99.90
4699;DHT22;33708;49.466;11.176;2024-01-27T05:05:22;0.20;99.90
4699;DHT22;33708;49.466;11.176;2024-01-27T05:07:48;0.10;99.90
4699;DHT22;33708;49.466;11.176;2024-01-27T05:10:15;0.10;99.90
4699;DHT22;33708;49.466;11.176;2024-01-27T05:12:41;0.20;99.90
4699;DHT22;33708;49.466;11.176;2024-01-27T05:15:07;0.10;99.90
4699;DHT22;33708;49.466;11.176;2024-01-27T05:17:33;0.10;99.90
4699;DHT22;33708;49.466;11.176;2024-01-27T05:19:59;0.00;99.90
4699;DHT22;33708;49.466;11.176;2024-01-27T05:22:25;-0.10;99.90
4699;DHT22;33708;49.466;11.176;2024-01-27T05:24:50;-0.20;99.90
4699;DHT22;33708;49.466;11.176;2024-01-27T05:27:16;-0.20;99.90
4699;DHT22;33708;49.466;11.176;2024-01-27T05:29:42;-0.10;99.90
4699;DHT22;33708;49.466;11.176;2024-01-27T05:32:08;-0.10;99.90
4699;DHT22;33708;49.466;11.176;2024-01-27T05:34:34;0.00;99.90
4699;DHT22;33708;49.466;11.176;2024-01-27T05:36:59;0.00;99.90
4699;DHT22;33708;49.466;11.176;2024-01-27T05:39:25;0.10;99.90
4699;DHT22;33708;49.466;11.176;2024-01-27T05:41:51;0.00;99.90
4699;DHT22;33708;49.466;11.176;2024-01-27T05:44:16;0.00;99.90
4699;DHT22;33708;49.466;11.176;2024-01-27T05:46:42;-0.20;99.90
4699;DHT22;33708;49.466;11.176;2024-01-27T05:49:07;-0.10;99.90
4699;DHT22;33708;49.466;11.176;2024-01-27T05:51:33;-0.10;99.90
4699;DHT22;33708;49.466;11.176;2024-01-27T05:53:59;-0.10;99.90
4699;DHT22;33708;49.466;11.176;2024-01-27T05:56:25;-0.10;99.90
4699;DHT22;33708;49.466;11.176;2024-01-27T05:58:50;-0.20;99.90
4699;DHT22;33708;49.466;11.176;2024-01-27T06:01:18;-0.20;99.90
4699;DHT22;33708;49.466;11.176;2024-01-27T06:03:44;-0.20;99.90
4699;DHT22;33708;49.466;11.176;2024-01-27T06:06:10;-0.20;99.90
4699;DHT22;33708;49.466;11.176;2024-01-27T06:08:36;-0.10;99.90
4699;DHT22;33708;49.466;11.176;2024-01-27T06:11:02;-0.10;99.90
4699;DHT22;33708;49.466;11.176;2024-01-27T06:13:28;-0.10;99.90
4699;DHT22;33708;49.466;11.176;2024-01-27T06:15:54;-0.10;99.90
4699;DHT22;33708;49.466;11.176;2024-01-27T06:18:20;-0.10;99.90
4699;DHT22;33708;49.466;11.176;2024-01-27T06:20:46;-0.20;99.90
4699;DHT22;33708;49.466;11.176;2024-01-27T06:23:11;-0.10;99.90
4699;DHT22;33708;49.466;11.176;2024-01-27T06:25:37;-0.10;99.90
4699;DHT22;33708;49.466;11.176;2024-01-27T06:28:02;-0.10;99.90
4699;DHT22;33708;49.466;11.176;2024-01-27T06:30:28;-0.20;99.90
4699;DHT22;33708;49.466;11.176;2024-01-27T06:32:54;-0.20;99.90
4699;DHT22;33708;49.466;11.176;2024-01-27T06:35:19;-0.20;99.90
4699;DHT22;33708;49.466;11.176;2024-01-27T06:37:45;-0.30;99.90
4699;DHT22;33708;49.466;11.176;2024-01-27T06:40:11;-0.30;99.90
4699;DHT22;33708;49.466;11.176;2024-01-27T06:42:36;-0.40;99.90
4699;DHT22;33708;49.466;11.176;2024-01-27T06:45:02;-0.50;99.90
4699;DHT22;33708;49.466;11.176;2024-01-27T06:47:29;-0.50;99.90
4699;DHT22;33708;49.466;11.176;2024-01-27T06:49:54;-0.50;99.90
4699;DHT22;33708;49.466;11.176;2024-01-27T06:52:20;-0.40;99.90
4699;DHT22;33708;49.466;11.176;2024-01-27T06:54:46;-0.40;99.90
4699;DHT22;33708;49.466;11.176;2024-01-27T06:57:22;-0.40;99.90
4699;DHT22;33708;49.466;11.176;2024-01-27T06:59:49;-0.40;99.90
4699;DHT22;33708;49.466;11.176;2024-01-27T07:02:27;-0.50;99.90
4699;DHT22;33708;49.466;11.176;2024-01-27T07:04:54;-0.50;99.90
4699;DHT22;33708;49.466;11.176;2024-01-27T07:07:23;-0.60;99.90
4699;DHT22;33708;49.466;11.176;2024-01-27T07:09:50;-0.40;99.90
4699;DHT22;33708;49.466;11.176;2024-01-27T07:12:16;-0.50;99.90
4699;DHT22;33708;49.466;11.176;2024-01-27T07:14:42;-0.50;99.90
4699;DHT22;33708;49.466;11.176;2024-01-27T07:17:08;-0.50;99.90
4699;DHT22;33708;49.466;11.176;2024-01-27T07:19:34;-0.40;99.90
4699;DHT22;33708;49.466;11.176;2024-01-27T07:21:59;-0.50;99.90
4699;DHT22;33708;49.466;11.176;2024-01-27T07:24:31;-0.40;99.90
4699;DHT22;33708;49.466;11.176;2024-01-27T07:26:57;-0.20;99.90
4699;DHT22;33708;49.466;11.176;2024-01-27T07:29:23;0.10;99.90
4699;DHT22;33708;49.466;11.176;2024-01-27T07:31:49;0.30;99.90
4699;DHT22;33708;49.466;11.176;2024-01-27T07:34:15;0.70;99.90
4699;DHT22;33708;49.466;11.176;2024-01-27T07:36:40;1.60;99.90
4699;DHT22;33708;49.466;11.176;2024-01-27T07:39:06;1.30;99.90
4699;DHT22;33708;49.466;11.176;2024-01-27T07:41:32;1.20;99.90
4699;DHT22;33708;49.466;11.176;2024-01-27T07:43:57;1.20;99.90
4699;DHT22;33708;49.466;11.176;2024-01-27T07:46:31;1.20;99.90
4699;DHT22;33708;49.466;11.176;2024-01-27T07:48:57;1.80;99.90
4699;DHT22;33708;49.466;11.176;2024-01-27T07:51:23;2.20;99.90
4699;DHT22;33708;49.466;11.176;2024-01-27T07:53:48;2.10;99.90
4699;DHT22;33708;49.466;11.176;2024-01-27T07:56:14;2.40;99.90
4699;DHT22;33708;49.466;11.176;2024-01-27T07:58:39;2.90;99.90
4699;DHT22;33708;49.466;11.176;2024-01-27T08:01:05;4.70;99.90
4699;DHT22;33708;49.466;11.176;2024-01-27T08:03:31;6.70;99.90
4699;DHT22;33708;49.466;11.176;2024-01-27T08:05:56;8.20;99.90
4699;DHT22;33708;49.466;11.176;2024-01-27T08:08:22;9.20;99.90
4699;DHT22;33708;49.466;11.176;2024-01-27T08:10:47;10.40;99.90
4699;DHT22;33708;49.466;11.176;2024-01-27T08:13:13;11.20;99.90
4699;DHT22;33708;49.466;11.176;2024-01-27T08:15:38;11.40;99.90
4699;DHT22;33708;49.466;11.176;2024-01-27T08:18:04;12.20;99.90
4699;DHT22;33708;49.466;11.176;2024-01-27T08:20:30;12.70;99.90
4699;DHT22;33708;49.466;11.176;2024-01-27T08:22:55;12.80;99.90
4699;DHT22;33708;49.466;11.176;2024-01-27T08:25:21;12.60;99.70
4699;DHT22;33708;49.466;11.176;2024-01-27T08:27:46;12.50;95.30
4699;DHT22;33708;49.466;11.176;2024-01-27T08:30:12;12.60;91.20
4699;DHT22;33708;49.466;11.176;2024-01-27T08:32:38;13.30;92.70
4699;DHT22;33708;49.466;11.176;2024-01-27T08:35:04;12.20;75.90
4699;DHT22;33708;49.466;11.176;2024-01-27T08:37:29;13.20;84.10
4699;DHT22;33708;49.466;11.176;2024-01-27T08:39:56;13.40;81.50
4699;DHT22;33708;49.466;11.176;2024-01-27T08:42:22;12.20;62.70
4699;DHT22;33708;49.466;11.176;2024-01-27T08:44:48;11.90;58.50
4699;DHT22;33708;49.466;11.176;2024-01-27T08:47:13;12.80;64.20
4699;DHT22;33708;49.466;11.176;2024-01-27T08:49:39;13.50;62.60
4699;DHT22;33708;49.466;11.176;2024-01-27T08:52:05;13.70;58.60
4699;DHT22;33708;49.466;11.176;2024-01-27T08:54:30;14.20;54.00
4699;DHT22;33708;49.466;11.176;2024-01-27T08:56:56;14.20;49.00
4699;DHT22;33708;49.466;11.176;2024-01-27T08:59:21;14.30;49.80
4699;DHT22;33708;49.466;11.176;2024-01-27T09:01:47;14.20;45.40
4699;DHT22;33708;49.466;11.176;2024-01-27T09:04:13;14.20;54.70
4699;DHT22;33708;49.466;11.176;2024-01-27T09:06:39;13.80;35.90
4699;DHT22;33708;49.466;11.176;2024-01-27T09:09:07;14.20;36.90
4699;DHT22;33708;49.466;11.176;2024-01-27T09:11:37;14.60;32.50
4699;DHT22;33708;49.466;11.176;2024-01-27T09:14:06;14.10;31.90
4699;DHT22;33708;49.466;11.176;2024-01-27T09:16:33;13.90;28.50
4699;DHT22;33708;49.466;11.176;2024-01-27T09:18:58;14.00;25.60
4699;DHT22;33708;49.466;11.176;2024-01-27T09:21:24;13.10;23.40
4699;DHT22;33708;49.466;11.176;2024-01-27T09:23:57;14.00;23.70
4699;DHT22;33708;49.466;11.176;2024-01-27T09:26:22;13.10;19.20
4699;DHT22;33708;49.466;11.176;2024-01-27T09:28:48;12.90;18.20
4699;DHT22;33708;49.466;11.176;2024-01-27T09:31:21;12.00;9.20
4699;DHT22;33708;49.466;11.176;2024-01-27T09:33:49;10.20;6.40
4699;DHT22;33708;49.466;11.176;2024-01-27T09:36:15;8.80;4.40
4699;DHT22;33708;49.466;11.176;2024-01-27T09:38:41;7.80;5.10
4699;DHT22;33708;49.466;11.176;2024-01-27T09:41:06;7.60;6.30
4699;DHT22;33708;49.466;11.176;2024-01-27T09:43:32;7.10;6.90
4699;DHT22;33708;49.466;11.176;2024-01-27T09:45:58;7.10;17.60
4699;DHT22;33708;49.466;11.176;2024-01-27T09:48:24;6.70;14.90
4699;DHT22;33708;49.466;11.176;2024-01-27T09:50:51;6.50;13.70
4699;DHT22;33708;49.466;11.176;2024-01-27T09:53:17;6.50;18.10
4699;DHT22;33708;49.466;11.176;2024-01-27T09:55:43;6.20;17.00
4699;DHT22;33708;49.466;11.176;2024-01-27T09:58:11;6.20;19.80
4699;DHT22;33708;49.466;11.176;2024-01-27T10:00:37;6.30;28.60
4699;DHT22;33708;49.466;11.176;2024-01-27T10:03:04;6.30;26.50
4699;DHT22;33708;49.466;11.176;2024-01-27T10:05:32;6.40;30.30
4699;DHT22;33708;49.466;11.176;2024-01-27T10:07:57;6.30;27.50
4699;DHT22;33708;49.466;11.176;2024-01-27T10:10:23;6.40;24.30
4699;DHT22;33708;49.466;11.176;2024-01-27T10:12:51;6.20;28.20
4699;DHT22;33708;49.466;11.176;2024-01-27T10:15:22;6.10;25.60
4699;DHT22;33708;49.466;11.176;2024-01-27T10:17:48;6.00;24.60
4699;DHT22;33708;49.466;11.176;2024-01-27T10:20:14;6.00;26.00
4699;DHT22;33708;49.466;11.176;2024-01-27T10:22:44;5.60;21.30
4699;DHT22;33708;49.466;11.176;2024-01-27T10:25:11;5.80;26.70
4699;DHT22;33708;49.466;11.176;2024-01-27T10:27:37;5.80;26.60
4699;DHT22;33708;49.466;11.176;2024-01-27T10:30:03;6.00;43.00
4699;DHT22;33708;49.466;11.176;2024-01-27T10:32:29;6.20;34.90
4699;DHT22;33708;49.466;11.176;2024-01-27T10:35:08;6.20;31.30
4699;DHT22;33708;49.466;11.176;2024-01-27T10:37:34;6.30;34.50
4699;DHT22;33708;49.466;11.176;2024-01-27T10:40:04;6.20;30.50
4699;DHT22;33708;49.466;11.176;2024-01-27T10:42:30;6.30;33.70
4699;DHT22;33708;49.466;11.176;2024-01-27T10:44:59;6.10;30.50
4699;DHT22;33708;49.466;11.176;2024-01-27T10:47:29;6.60;35.00
4699;DHT22;33708;49.466;11.176;2024-01-27T10:49:57;6.20;34.50
4699;DHT22;33708;49.466;11.176;2024-01-27T10:52:32;6.20;36.20
4699;DHT22;33708;49.466;11.176;2024-01-27T10:55:02;6.40;37.20
4699;DHT22;33708;49.466;11.176;2024-01-27T10:57:29;6.40;37.10
4699;DHT22;33708;49.466;11.176;2024-01-27T10:59:56;6.50;35.60
4699;DHT22;33708;49.466;11.176;2024-01-27T11:02:23;6.50;35.90
4699;DHT22;33708;49.466;11.176;2024-01-27T11:04:49;6.50;35.90
4699;DHT22;33708;49.466;11.176;2024-01-27T11:07:17;6.40;32.20
4699;DHT22;33708;49.466;11.176;2024-01-27T11:09:44;6.40;34.50
4699;DHT22;33708;49.466;11.176;2024-01-27T11:12:11;6.50;33.80
4699;DHT22;33708;49.466;11.176;2024-01-27T11:14:37;6.50;36.20
4699;DHT22;33708;49.466;11.176;2024-01-27T11:17:03;6.70;43.50
4699;DHT22;33708;49.466;11.176;2024-01-27T11:19:29;6.80;42.00
4699;DHT22;33708;49.466;11.176;2024-01-27T11:22:03;6.80;39.70
4699;DHT22;33708;49.466;11.176;2024-01-27T11:24:29;6.80;40.60
4699;DHT22;33708;49.466;11.176;2024-01-27T11:27:05;6.90;35.90
4699;DHT22;33708;49.466;11.176;2024-01-27T11:29:31;7.00;39.50
4699;DHT22;33708;49.466;11.176;2024-01-27T11:32:01;6.90;38.00
4699;DHT22;33708;49.466;11.176;2024-01-27T11:34:28;7.10;38.50
4699;DHT22;33708;49.466;11.176;2024-01-27T11:36:53;7.00;36.20
4699;DHT22;33708;49.466;11.176;2024-01-27T11:39:29;7.10;35.60
4699;DHT22;33708;49.466;11.176;2024-01-27T11:42:14;7.20;38.40
4699;DHT22;33708;49.466;11.176;2024-01-27T11:44:40;7.30;39.60
4699;DHT22;33708;49.466;11.176;2024-01-27T11:47:14;7.40;39.90
4699;DHT22;33708;49.466;11.176;2024-01-27T11:49:42;7.50;39.50
4699;DHT22;33708;49.466;11.176;2024-01-27T11:52:07;7.40;35.20
4699;DHT22;33708;49.466;11.176;2024-01-27T11:54:33;7.50;38.00
4699;DHT22;33708;49.466;11.176;2024-01-27T11:56:59;7.40;35.80
4699;DHT22;33708;49.466;11.176;2024-01-27T11:59:24;7.70;40.20
4699;DHT22;33708;49.466;11.176;2024-01-27T12:01:50;7.70;40.10
4699;DHT22;33708;49.466;11.176;2024-01-27T12:04:16;7.80;38.90
4699;DHT22;33708;49.466;11.176;2024-01-27T12:06:43;7.80;39.40
4699;DHT22;33708;49.466;11.176;2024-01-27T12:09:10;7.80;38.50
4699;DHT22;33708;49.466;11.176;2024-01-27T12:11:38;7.80;34.90
4699;DHT22;33708;49.466;11.176;2024-01-27T12:14:05;7.30;28.10
4699;DHT22;33708;49.466;11.176;2024-01-27T12:16:31;7.20;25.90
4699;DHT22;33708;49.466;11.176;2024-01-27T12:18:57;7.10;27.90
4699;DHT22;33708;49.466;11.176;2024-01-27T12:21:23;7.30;32.00
4699;DHT22;33708;49.466;11.176;2024-01-27T12:23:56;7.50;32.70
4699;DHT22;33708;49.466;11.176;2024-01-27T12:26:22;7.60;33.90
4699;DHT22;33708;49.466;11.176;2024-01-27T12:28:48;8.90;33.10
4699;DHT22;33708;49.466;11.176;2024-01-27T12:31:16;7.90;29.90
4699;DHT22;33708;49.466;11.176;2024-01-27T12:33:53;7.80;31.70
4699;DHT22;33708;49.466;11.176;2024-01-27T12:36:21;7.50;24.90
4699;DHT22;33708;49.466;11.176;2024-01-27T12:39:01;7.40;23.70
4699;DHT22;33708;49.466;11.176;2024-01-27T12:41:29;7.90;22.60
4699;DHT22;33708;49.466;11.176;2024-01-27T12:43:55;7.30;21.70
4699;DHT22;33708;49.466;11.176;2024-01-27T12:46:21;7.00;22.40
4699;DHT22;33708;49.466;11.176;2024-01-27T12:48:47;7.00;22.30
4699;DHT22;33708;49.466;11.176;2024-01-27T12:51:12;7.10;23.20
4699;DHT22;33708;49.466;11.176;2024-01-27T12:53:39;7.10;24.90
4699;DHT22;33708;49.466;11.176;2024-01-27T12:56:08;7.00;22.00
4699;DHT22;33708;49.466;11.176;2024-01-27T12:58:34;7.00;21.50
4699;DHT22;33708;49.466;11.176;2024-01-27T13:00:59;6.90;22.80
4699;DHT22;33708;49.466;11.176;2024-01-27T13:03:25;6.90;21.20
4699;DHT22;33708;49.466;11.176;2024-01-27T13:05:51;6.80;21.30
4699;DHT22;33708;49.466;11.176;2024-01-27T13:08:17;6.80;22.70
4699;DHT22;33708;49.466;11.176;2024-01-27T13:10:42;6.80;19.90
4699;DHT22;33708;49.466;11.176;2024-01-27T13:13:08;6.70;19.80
4699;DHT22;33708;49.466;11.176;2024-01-27T13:15:33;6.70;20.70
4699;DHT22;33708;49.466;11.176;2024-01-27T13:17:59;6.70;20.90
4699;DHT22;33708;49.466;11.176;2024-01-27T13:20:25;6.70;18.30
4699;DHT22;33708;49.466;11.176;2024-01-27T13:22:50;6.70;18.60
4699;DHT22;33708;49.466;11.176;2024-01-27T13:25:18;6.70;19.90
4699;DHT22;33708;49.466;11.176;2024-01-27T13:27:43;6.80;22.20
4699;DHT22;33708;49.466;11.176;2024-01-27T13:30:09;6.80;22.40
4699;DHT22;33708;49.466;11.176;2024-01-27T13:32:35;6.80;22.80
4699;DHT22;33708;49.466;11.176;2024-01-27T13:35:00;6.80;25.10
4699;DHT22;33708;49.466;11.176;2024-01-27T13:37:26;6.80;21.80
4699;DHT22;33708;49.466;11.176;2024-01-27T13:39:53;6.70;22.30
4699;DHT22;33708;49.466;11.176;2024-01-27T13:42:18;6.70;20.40
4699;DHT22;33708;49.466;11.176;2024-01-27T13:44:44;6.70;22.40
4699;DHT22;33708;49.466;11.176;2024-01-27T13:47:11;6.70;22.00
4699;DHT22;33708;49.466;11.176;2024-01-27T13:49:38;6.70;20.90
4699;DHT22;33708;49.466;11.176;2024-01-27T13:52:04;6.70;22.40
4699;DHT22;33708;49.466;11.176;2024-01-27T13:54:30;6.60;23.50
4699;DHT22;33708;49.466;11.176;2024-01-27T13:56:56;6.70;22.30
4699;DHT22;33708;49.466;11.176;2024-01-27T13:59:23;6.70;22.90
4699;DHT22;33708;49.466;11.176;2024-01-27T14:01:48;6.60;21.10
4699;DHT22;33708;49.466;11.176;2024-01-27T14:04:14;6.60;20.40
4699;DHT22;33708;49.466;11.176;2024-01-27T14:06:40;6.50;19.60
4699;DHT22;33708;49.466;11.176;2024-01-27T14:09:05;6.50;19.10
4699;DHT22;33708;49.466;11.176;2024-01-27T14:11:32;6.50;19.60
4699;DHT22;33708;49.466;11.176;2024-01-27T14:13:57;6.50;16.80
4699;DHT22;33708;49.466;11.176;2024-01-27T14:16:23;6.40;15.50
4699;DHT22;33708;49.466;11.176;2024-01-27T14:18:50;6.40;15.30
4699;DHT22;33708;49.466;11.176;2024-01-27T14:21:15;6.40;15.90
4699;DHT22;33708;49.466;11.176;2024-01-27T14:23:41;6.40;17.40
4699;DHT22;33708;49.466;11.176;2024-01-27T14:26:07;6.40;15.80
4699;DHT22;33708;49.466;11.176;2024-01-27T14:28:40;6.40;15.10
4699;DHT22;33708;49.466;11.176;2024-01-27T14:31:06;6.30;15.00
4699;DHT22;33708;49.466;11.176;2024-01-27T14:33:33;6.20;13.20
4699;DHT22;33708;49.466;11.176;2024-01-27T14:35:58;6.20;13.60
4699;DHT22;33708;49.466;11.176;2024-01-27T14:38:24;6.20;13.40
4699;DHT22;33708;49.466;11.176;2024-01-27T14:40:50;6.10;17.00
4699;DHT22;33708;49.466;11.176;2024-01-27T14:43:15;6.00;15.90
4699;DHT22;33708;49.466;11.176;2024-01-27T14:45:44;5.90;11.10
4699;DHT22;33708;49.466;11.176;2024-01-27T14:48:11;5.80;11.30
4699;DHT22;33708;49.466;11.176;2024-01-27T14:50:37;5.80;10.40
4699;DHT22;33708;49.466;11.176;2024-01-27T14:53:03;5.80;16.00
4699;DHT22;33708;49.466;11.176;2024-01-27T14:55:30;5.70;11.40
4699;DHT22;33708;49.466;11.176;2024-01-27T14:57:56;5.70;12.50
4699;DHT22;33708;49.466;11.176;2024-01-27T15:00:22;5.60;10.70
4699;DHT22;33708;49.466;11.176;2024-01-27T15:02:47;5.60;9.20
4699;DHT22;33708;49.466;11.176;2024-01-27T15:05:13;5.50;10.70
4699;DHT22;33708;49.466;11.176;2024-01-27T15:07:39;5.50;12.20
4699;DHT22;33708;49.466;11.176;2024-01-27T15:10:06;5.50;13.50
4699;DHT22;33708;49.466;11.176;2024-01-27T15:12:31;5.40;14.50
4699;DHT22;33708;49.466;11.176;2024-01-27T15:14:57;5.40;14.40
4699;DHT22;33708;49.466;11.176;2024-01-27T15:17:23;5.40;15.20
4699;DHT22;33708;49.466;11.176;2024-01-27T15:19:49;5.30;13.30
4699;DHT22;33708;49.466;11.176;2024-01-27T15:22:17;5.20;12.30
4699;DHT22;33708;49.466;11.176;2024-01-27T15:24:43;5.10;13.80
4699;DHT22;33708;49.466;11.176;2024-01-27T15:27:08;5.00;17.50
4699;DHT22;33708;49.466;11.176;2024-01-27T15:29:34;5.00;19.00
4699;DHT22;33708;49.466;11.176;2024-01-27T15:32:00;4.90;19.90
4699;DHT22;33708;49.466;11.176;2024-01-27T15:34:25;4.80;19.80
4699;DHT22;33708;49.466;11.176;2024-01-27T15:36:51;4.70;19.30